sensor_id;sensor_type;location;lat;lon;timestamp;pressure;altitude;pressure_sealevel;temperature;humidity
59859;BME280;45734;53.648;9.566;2024-01-15T00:04:00;55283.91;;;-145.06;100.00
59859;BME280;45734;53.648;9.566;2024-01-15T00:09:00;55261.63;;;-145.06;100.00
59859;BME280;45734;53.648;9.566;2024-01-15T00:14:00;55290.00;;;-145.06;100.00
59859;BME280;45734;53.648;9.566;2024-01-15T00:19:01;55283.91;;;-145.06;100.00
59859;BME280;45734;53.648;9.566;2024-01-15T00:24:01;55271.75;;;-145.06;100.00
59859;BME280;45734;53.648;9.566;2024-01-15T00:29:02;55235.28;;;-145.06;100.00
59859;BME280;45734;53.648;9.566;2024-01-15T00:34:03;55267.72;;;-145.06;100.00
59859;BME280;45734;53.648;9.566;2024-01-15T00:39:03;55202.88;;;-145.06;100.00
59859;BME280;45734;53.648;9.566;2024-01-15T00:44:05;55196.81;;;-145.06;100.00
59859;BME280;45734;53.648;9.566;2024-01-15T00:49:05;55190.72;;;-145.06;100.00
59859;BME280;45734;53.648;9.566;2024-01-15T00:54:06;55192.75;;;-145.06;100.00
59859;BME280;45734;53.648;9.566;2024-01-15T00:59:06;55150.22;;;-145.06;100.00
59859;BME280;45734;53.648;9.566;2024-01-15T01:04:06;55129.94;;;-145.06;100.00
59859;BME280;45734;53.648;9.566;2024-01-15T01:09:06;55103.63;;;-145.06;100.00
59859;BME280;45734;53.648;9.566;2024-01-15T01:14:07;55069.19;;;-145.06;100.00
59859;BME280;45734;53.648;9.566;2024-01-15T01:19:07;55077.28;;;-145.06;100.00
59859;BME280;45734;53.648;9.566;2024-01-15T01:24:07;55077.28;;;-145.06;100.00
59859;BME280;45734;53.648;9.566;2024-01-15T01:29:08;55085.38;;;-145.06;100.00
59859;BME280;45734;53.648;9.566;2024-01-15T01:34:08;55103.63;;;-145.06;100.00
59859;BME280;45734;53.648;9.566;2024-01-15T01:39:08;55111.72;;;-145.06;100.00
59859;BME280;45734;53.648;9.566;2024-01-15T01:44:09;55158.31;;;-145.06;100.00
59859;BME280;45734;53.648;9.566;2024-01-15T01:49:09;55154.25;;;-145.06;100.00
59859;BME280;45734;53.648;9.566;2024-01-15T01:54:10;55188.69;;;-145.06;100.00
59859;BME280;45734;53.648;9.566;2024-01-15T01:59:13;55152.22;;;-145.06;100.00
59859;BME280;45734;53.648;9.566;2024-01-15T02:04:14;55166.41;;;-145.06;100.00
59859;BME280;45734;53.648;9.566;2024-01-15T02:09:15;55164.38;;;-145.06;100.00
59859;BME280;45734;53.648;9.566;2024-01-15T02:14:16;55184.66;;;-145.06;100.00
59859;BME280;45734;53.648;9.566;2024-01-15T02:19:17;55174.53;;;-145.06;100.00
59859;BME280;45734;53.648;9.566;2024-01-15T02:24:17;55225.16;;;-145.06;100.00
59859;BME280;45734;53.648;9.566;2024-01-15T02:29:18;55249.47;;;-145.06;100.00
59859;BME280;45734;53.648;9.566;2024-01-15T02:34:18;55217.06;;;-145.06;100.00
59859;BME280;45734;53.648;9.566;2024-01-15T02:39:18;55170.47;;;-145.06;100.00
59859;BME280;45734;53.648;9.566;2024-01-15T02:44:19;55176.53;;;-145.06;100.00
59859;BME280;45734;53.648;9.566;2024-01-15T02:49:19;55150.22;;;-145.06;100.00
59859;BME280;45734;53.648;9.566;2024-01-15T02:54:19;55156.28;;;-145.06;100.00
59859;BME280;45734;53.648;9.566;2024-01-15T02:59:20;55164.38;;;-145.06;100.00
59859;BME280;45734;53.648;9.566;2024-01-15T03:04:20;55144.13;;;-145.06;100.00
59859;BME280;45734;53.648;9.566;2024-01-15T03:09:20;55127.94;;;-145.06;100.00
59859;BME280;45734;53.648;9.566;2024-01-15T03:14:20;55210.97;;;-145.06;100.00
59859;BME280;45734;53.648;9.566;2024-01-15T03:19:21;55148.19;;;-145.06;100.00
59859;BME280;45734;53.648;9.566;2024-01-15T03:24:21;55105.63;;;-145.06;100.00
59859;BME280;45734;53.648;9.566;2024-01-15T03:29:21;55067.16;;;-145.06;100.00
59859;BME280;45734;53.648;9.566;2024-01-15T03:34:22;54992.19;;;-145.06;100.00
59859;BME280;45734;53.648;9.566;2024-01-15T03:39:22;54935.47;;;-145.06;100.00
59859;BME280;45734;53.648;9.566;2024-01-15T03:44:22;54888.88;;;-145.06;100.00
59859;BME280;45734;53.648;9.566;2024-01-15T03:49:22;54890.91;;;-145.06;100.00
59859;BME280;45734;53.648;9.566;2024-01-15T03:54:23;54951.69;;;-145.06;100.00
59859;BME280;45734;53.648;9.566;2024-01-15T03:59:23;54921.28;;;-145.06;100.00
59859;BME280;45734;53.648;9.566;2024-01-15T04:04:23;54901.03;;;-145.06;100.00
59859;BME280;45734;53.648;9.566;2024-01-15T04:09:23;54892.94;;;-145.06;100.00
59859;BME280;45734;53.648;9.566;2024-01-15T04:14:24;54846.34;;;-145.06;100.00
59859;BME280;45734;53.648;9.566;2024-01-15T04:19:24;54864.59;;;-145.06;100.00
59859;BME280;45734;53.648;9.566;2024-01-15T04:24:24;54864.59;;;-145.06;100.00
59859;BME280;45734;53.648;9.566;2024-01-15T04:29:25;54828.13;;;-145.06;100.00
59859;BME280;45734;53.648;9.566;2024-01-15T04:34:25;54836.22;;;-145.06;100.00
59859;BME280;45734;53.648;9.566;2024-01-15T04:39:26;54844.31;;;-145.06;100.00
59859;BME280;45734;53.648;9.566;2024-01-15T04:44:26;54840.28;;;-145.06;100.00
59859;BME280;45734;53.648;9.566;2024-01-15T04:49:26;54832.16;;;-145.06;100.00
59859;BME280;45734;53.648;9.566;2024-01-15T04:54:27;54844.31;;;-145.06;100.00
59859;BME280;45734;53.648;9.566;2024-01-15T04:59:28;54826.09;;;-145.06;100.00
59859;BME280;45734;53.648;9.566;2024-01-15T05:04:28;54866.59;;;-145.06;100.00
59859;BME280;45734;53.648;9.566;2024-01-15T05:09:28;54876.72;;;-145.06;100.00
59859;BME280;45734;53.648;9.566;2024-01-15T05:14:28;54878.75;;;-145.06;100.00
59859;BME280;45734;53.648;9.566;2024-01-15T05:19:29;54846.34;;;-145.06;100.00
59859;BME280;45734;53.648;9.566;2024-01-15T05:24:29;54848.38;;;-145.06;100.00
59859;BME280;45734;53.648;9.566;2024-01-15T05:29:29;54840.28;;;-145.06;100.00
59859;BME280;45734;53.648;9.566;2024-01-15T05:34:30;54848.38;;;-145.06;100.00
59859;BME280;45734;53.648;9.566;2024-01-15T05:39:30;54862.56;;;-145.06;100.00
59859;BME280;45734;53.648;9.566;2024-01-15T05:44:30;54860.53;;;-145.06;100.00
59859;BME280;45734;53.648;9.566;2024-01-15T05:49:30;54813.94;;;-145.06;100.00
59859;BME280;45734;53.648;9.566;2024-01-15T05:54:31;54820.00;;;-145.06;100.00
59859;BME280;45734;53.648;9.566;2024-01-15T05:59:31;54785.59;;;-145.06;100.00
59859;BME280;45734;53.648;9.566;2024-01-15T06:04:34;54751.16;;;-145.06;100.00
59859;BME280;45734;53.648;9.566;2024-01-15T06:09:34;54759.25;;;-145.06;100.00
59859;BME280;45734;53.648;9.566;2024-01-15T06:14:34;54730.88;;;-145.06;100.00
59859;BME280;45734;53.648;9.566;2024-01-15T06:19:35;54718.72;;;-145.06;100.00
59859;BME280;45734;53.648;9.566;2024-01-15T06:24:35;54763.31;;;-145.06;100.00
59859;BME280;45734;53.648;9.566;2024-01-15T06:29:37;54755.19;;;-145.06;100.00
59859;BME280;45734;53.648;9.566;2024-01-15T06:34:38;54751.16;;;-145.06;100.00
59859;BME280;45734;53.648;9.566;2024-01-15T06:39:38;54747.09;;;-145.06;100.00
59859;BME280;45734;53.648;9.566;2024-01-15T06:44:38;54759.25;;;-145.06;100.00
59859;BME280;45734;53.648;9.566;2024-01-15T06:49:39;54767.34;;;-145.06;100.00
59859;BME280;45734;53.648;9.566;2024-01-15T06:54:39;54765.31;;;-145.06;100.00
59859;BME280;45734;53.648;9.566;2024-01-15T06:59:39;54767.34;;;-145.06;100.00
59859;BME280;45734;53.648;9.566;2024-01-15T07:04:41;54749.13;;;-145.06;100.00
59859;BME280;45734;53.648;9.566;2024-01-15T07:09:41;54759.25;;;-145.06;100.00
59859;BME280;45734;53.648;9.566;2024-01-15T07:14:41;54700.50;;;-145.06;100.00
59859;BME280;45734;53.648;9.566;2024-01-15T07:19:41;54722.78;;;-145.06;100.00
59859;BME280;45734;53.648;9.566;2024-01-15T07:24:42;54747.09;;;-145.06;100.00
59859;BME280;45734;53.648;9.566;2024-01-15T07:29:42;54722.78;;;-145.06;100.00
59859;BME280;45734;53.648;9.566;2024-01-15T07:34:43;54710.63;;;-145.06;100.00
59859;BME280;45734;53.648;9.566;2024-01-15T07:39:43;54763.31;;;-145.06;100.00
59859;BME280;45734;53.648;9.566;2024-01-15T07:44:43;54749.13;;;-145.06;100.00
59859;BME280;45734;53.648;9.566;2024-01-15T07:49:45;54775.44;;;-145.06;100.00
59859;BME280;45734;53.648;9.566;2024-01-15T07:54:45;54775.44;;;-145.06;100.00
59859;BME280;45734;53.648;9.566;2024-01-15T07:59:45;54781.53;;;-145.06;100.00
59859;BME280;45734;53.648;9.566;2024-01-15T08:04:46;54789.63;;;-145.06;100.00
59859;BME280;45734;53.648;9.566;2024-01-15T08:09:46;54771.41;;;-145.06;100.00
59859;BME280;45734;53.648;9.566;2024-01-15T08:14:48;54775.44;;;-145.06;100.00
59859;BME280;45734;53.648;9.566;2024-01-15T08:19:48;54795.72;;;-145.06;100.00
59859;BME280;45734;53.648;9.566;2024-01-15T08:24:49;54803.81;;;-145.06;100.00
59859;BME280;45734;53.648;9.566;2024-01-15T08:29:49;54787.59;;;-145.06;100.00
59859;BME280;45734;53.648;9.566;2024-01-15T08:34:49;54769.38;;;-145.06;100.00
59859;BME280;45734;53.648;9.566;2024-01-15T08:39:52;54767.34;;;-145.06;100.00
59859;BME280;45734;53.648;9.566;2024-01-15T08:44:52;54809.88;;;-145.06;100.00
59859;BME280;45734;53.648;9.566;2024-01-15T08:49:52;54807.88;;;-145.06;100.00
59859;BME280;45734;53.648;9.566;2024-01-15T08:54:53;54793.69;;;-145.06;100.00
59859;BME280;45734;53.648;9.566;2024-01-15T08:59:53;54803.81;;;-145.06;100.00
59859;BME280;45734;53.648;9.566;2024-01-15T09:04:54;54759.25;;;-145.06;100.00
59859;BME280;45734;53.648;9.566;2024-01-15T09:09:54;54803.81;;;-145.06;100.00
59859;BME280;45734;53.648;9.566;2024-01-15T09:14:54;54779.50;;;-145.06;100.00
59859;BME280;45734;53.648;9.566;2024-01-15T09:19:55;54722.78;;;-145.06;100.00
59859;BME280;45734;53.648;9.566;2024-01-15T09:24:56;54771.41;;;-145.06;100.00
59859;BME280;45734;53.648;9.566;2024-01-15T09:29:56;54795.72;;;-145.06;100.00
59859;BME280;45734;53.648;9.566;2024-01-15T09:34:56;54741.03;;;-145.06;100.00
59859;BME280;45734;53.648;9.566;2024-01-15T09:39:56;54747.09;;;-145.06;100.00
59859;BME280;45734;53.648;9.566;2024-01-15T09:44:57;54787.59;;;-145.06;100.00
59859;BME280;45734;53.648;9.566;2024-01-15T09:49:58;54797.72;;;-145.06;100.00
59859;BME280;45734;53.648;9.566;2024-01-15T09:54:59;54795.72;;;-145.06;100.00
59859;BME280;45734;53.648;9.566;2024-01-15T10:00:02;54820.00;;;-145.06;100.00
59859;BME280;45734;53.648;9.566;2024-01-15T10:05:05;54811.91;;;-145.06;100.00
59859;BME280;45734;53.648;9.566;2024-01-15T10:10:06;54842.31;;;-145.06;100.00
59859;BME280;45734;53.648;9.566;2024-01-15T10:15:10;54894.97;;;-145.06;100.00
59859;BME280;45734;53.648;9.566;2024-01-15T10:20:12;54874.72;;;-145.06;100.00
59859;BME280;45734;53.648;9.566;2024-01-15T10:25:13;54876.72;;;-145.06;100.00
59859;BME280;45734;53.648;9.566;2024-01-15T10:30:14;54874.72;;;-145.06;100.00
59859;BME280;45734;53.648;9.566;2024-01-15T10:35:16;54884.84;;;-145.06;100.00
59859;BME280;45734;53.648;9.566;2024-01-15T10:40:18;54897.00;;;-145.06;100.00
59859;BME280;45734;53.648;9.566;2024-01-15T10:45:19;54929.41;;;-145.06;100.00
59859;BME280;45734;53.648;9.566;2024-01-15T10:50:19;54941.56;;;-145.06;100.00
59859;BME280;45734;53.648;9.566;2024-01-15T10:55:21;54937.50;;;-145.06;100.00
59859;BME280;45734;53.648;9.566;2024-01-15T11:00:23;54961.81;;;-145.06;100.00
59859;BME280;45734;53.648;9.566;2024-01-15T11:05:25;54943.59;;;-145.06;100.00
59859;BME280;45734;53.648;9.566;2024-01-15T11:10:38;54945.59;;;-145.06;100.00
59859;BME280;45734;53.648;9.566;2024-01-15T11:15:55;54943.59;;;-145.06;100.00
59859;BME280;45734;53.648;9.566;2024-01-15T11:26:38;54939.53;;;-145.06;100.00
59859;BME280;45734;53.648;9.566;2024-01-15T11:41:49;54915.22;;;-145.06;100.00
59859;BME280;45734;53.648;9.566;2024-01-15T11:47:01;54935.47;;;-145.06;100.00
59859;BME280;45734;53.648;9.566;2024-01-15T11:52:04;54947.63;;;-145.06;100.00
59859;BME280;45734;53.648;9.566;2024-01-15T11:57:10;54925.34;;;-145.06;100.00
59859;BME280;45734;53.648;9.566;2024-01-15T12:02:15;54929.41;;;-145.06;100.00
59859;BME280;45734;53.648;9.566;2024-01-15T12:07:15;54941.56;;;-145.06;100.00
59859;BME280;45734;53.648;9.566;2024-01-15T12:12:28;54949.66;;;-145.06;100.00
59859;BME280;45734;53.648;9.566;2024-01-15T12:17:31;54947.63;;;-145.06;100.00
59859;BME280;45734;53.648;9.566;2024-01-15T12:22:31;54929.41;;;-145.06;100.00
59859;BME280;45734;53.648;9.566;2024-01-15T12:27:33;54961.81;;;-145.06;100.00
59859;BME280;45734;53.648;9.566;2024-01-15T12:32:34;54982.06;;;-145.06;100.00
59859;BME280;45734;53.648;9.566;2024-01-15T12:37:39;54953.72;;;-145.06;100.00
59859;BME280;45734;53.648;9.566;2024-01-15T12:42:40;54988.16;;;-145.06;100.00
59859;BME280;45734;53.648;9.566;2024-01-15T12:47:42;54963.84;;;-145.06;100.00
59859;BME280;45734;53.648;9.566;2024-01-15T12:52:42;54961.81;;;-145.06;100.00
59859;BME280;45734;53.648;9.566;2024-01-15T12:57:42;54967.88;;;-145.06;100.00
59859;BME280;45734;53.648;9.566;2024-01-15T13:02:43;54959.78;;;-145.06;100.00
59859;BME280;45734;53.648;9.566;2024-01-15T13:07:43;54978.03;;;-145.06;100.00
59859;BME280;45734;53.648;9.566;2024-01-15T13:12:43;54953.72;;;-145.06;100.00
59859;BME280;45734;53.648;9.566;2024-01-15T13:17:44;54945.59;;;-145.06;100.00
59859;BME280;45734;53.648;9.566;2024-01-15T13:22:44;54982.06;;;-145.06;100.00
59859;BME280;45734;53.648;9.566;2024-01-15T13:27:45;54953.72;;;-145.06;100.00
59859;BME280;45734;53.648;9.566;2024-01-15T13:32:46;54937.50;;;-145.06;100.00
59859;BME280;45734;53.648;9.566;2024-01-15T13:37:47;54955.72;;;-145.06;100.00
59859;BME280;45734;53.648;9.566;2024-01-15T13:42:47;54921.28;;;-145.06;100.00
59859;BME280;45734;53.648;9.566;2024-01-15T13:47:48;54949.66;;;-145.06;100.00
59859;BME280;45734;53.648;9.566;2024-01-15T13:52:48;54925.34;;;-145.06;100.00
59859;BME280;45734;53.648;9.566;2024-01-15T13:57:49;54931.44;;;-145.06;100.00
59859;BME280;45734;53.648;9.566;2024-01-15T14:02:49;54943.59;;;-145.06;100.00
59859;BME280;45734;53.648;9.566;2024-01-15T14:07:49;54937.50;;;-145.06;100.00
59859;BME280;45734;53.648;9.566;2024-01-15T14:12:50;54986.13;;;-145.06;100.00
59859;BME280;45734;53.648;9.566;2024-01-15T14:17:50;54955.72;;;-145.06;100.00
59859;BME280;45734;53.648;9.566;2024-01-15T14:22:51;54945.59;;;-145.06;100.00
59859;BME280;45734;53.648;9.566;2024-01-15T14:27:51;54933.44;;;-145.06;100.00
59859;BME280;45734;53.648;9.566;2024-01-15T14:32:51;54949.66;;;-145.06;100.00
59859;BME280;45734;53.648;9.566;2024-01-15T14:37:52;54961.81;;;-145.06;100.00
59859;BME280;45734;53.648;9.566;2024-01-15T14:42:52;54994.22;;;-145.06;100.00
59859;BME280;45734;53.648;9.566;2024-01-15T14:47:53;54998.28;;;-145.06;100.00
59859;BME280;45734;53.648;9.566;2024-01-15T14:52:53;55006.38;;;-145.06;100.00
59859;BME280;45734;53.648;9.566;2024-01-15T14:57:54;55046.91;;;-145.06;100.00
59859;BME280;45734;53.648;9.566;2024-01-15T15:02:54;55055.00;;;-145.06;100.00
59859;BME280;45734;53.648;9.566;2024-01-15T15:07:55;55024.59;;;-145.06;100.00
59859;BME280;45734;53.648;9.566;2024-01-15T15:12:55;55052.97;;;-145.06;100.00
59859;BME280;45734;53.648;9.566;2024-01-15T15:17:55;55055.00;;;-145.06;100.00
59859;BME280;45734;53.648;9.566;2024-01-15T15:22:55;55081.34;;;-145.06;100.00
59859;BME280;45734;53.648;9.566;2024-01-15T15:27:58;55073.22;;;-145.06;100.00
59859;BME280;45734;53.648;9.566;2024-01-15T15:32:58;55075.25;;;-145.06;100.00
59859;BME280;45734;53.648;9.566;2024-01-15T15:37:58;55089.44;;;-145.06;100.00
59859;BME280;45734;53.648;9.566;2024-01-15T15:42:58;55121.84;;;-145.06;100.00
59859;BME280;45734;53.648;9.566;2024-01-15T15:47:59;55119.81;;;-145.06;100.00
59859;BME280;45734;53.648;9.566;2024-01-15T15:52:59;55121.84;;;-145.06;100.00
59859;BME280;45734;53.648;9.566;2024-01-15T15:58:05;55156.28;;;-145.06;100.00
59859;BME280;45734;53.648;9.566;2024-01-15T16:03:05;55148.19;;;-145.06;100.00
59859;BME280;45734;53.648;9.566;2024-01-15T16:08:05;55148.19;;;-145.06;100.00
59859;BME280;45734;53.648;9.566;2024-01-15T16:13:06;55164.38;;;-145.06;100.00
59859;BME280;45734;53.648;9.566;2024-01-15T16:18:06;55164.38;;;-145.06;100.00
59859;BME280;45734;53.648;9.566;2024-01-15T16:23:06;55136.03;;;-145.06;100.00
59859;BME280;45734;53.648;9.566;2024-01-15T16:28:07;55148.19;;;-145.06;100.00
59859;BME280;45734;53.648;9.566;2024-01-15T16:33:07;55178.56;;;-145.06;100.00
59859;BME280;45734;53.648;9.566;2024-01-15T16:38:09;55200.84;;;-145.06;100.00
59859;BME280;45734;53.648;9.566;2024-01-15T16:43:09;55204.91;;;-145.06;100.00
59859;BME280;45734;53.648;9.566;2024-01-15T16:48:09;55247.44;;;-145.06;100.00
59859;BME280;45734;53.648;9.566;2024-01-15T16:53:10;55269.72;;;-145.06;100.00
59859;BME280;45734;53.648;9.566;2024-01-15T16:58:10;55285.94;;;-145.06;100.00
59859;BME280;45734;53.648;9.566;2024-01-15T17:03:12;55306.19;;;-145.06;100.00
59859;BME280;45734;53.648;9.566;2024-01-15T17:08:12;55273.78;;;-145.06;100.00
59859;BME280;45734;53.648;9.566;2024-01-15T17:13:12;55180.59;;;-145.06;100.00
59859;BME280;45734;53.648;9.566;2024-01-15T17:18:15;55075.25;;;-145.06;100.00
59859;BME280;45734;53.648;9.566;2024-01-15T17:23:16;55111.72;;;-145.06;100.00
59859;BME280;45734;53.648;9.566;2024-01-15T17:28:16;55095.50;;;-145.06;100.00
59859;BME280;45734;53.648;9.566;2024-01-15T17:33:17;55077.28;;;-145.06;100.00
59859;BME280;45734;53.648;9.566;2024-01-15T17:38:18;55140.06;;;-145.06;100.00
59859;BME280;45734;53.648;9.566;2024-01-15T17:43:18;55087.41;;;-145.06;100.00
59859;BME280;45734;53.648;9.566;2024-01-15T17:48:22;55121.84;;;-145.06;100.00
59859;BME280;45734;53.648;9.566;2024-01-15T17:53:23;55136.03;;;-145.06;100.00
59859;BME280;45734;53.648;9.566;2024-01-15T17:58:23;55123.88;;;-145.06;100.00
59859;BME280;45734;53.648;9.566;2024-01-15T18:03:24;55154.25;;;-145.06;100.00
59859;BME280;45734;53.648;9.566;2024-01-15T18:08:24;55121.84;;;-145.06;100.00
59859;BME280;45734;53.648;9.566;2024-01-15T18:13:25;55164.38;;;-145.06;100.00
59859;BME280;45734;53.648;9.566;2024-01-15T18:18:25;55194.78;;;-145.06;100.00
59859;BME280;45734;53.648;9.566;2024-01-15T18:23:25;55221.13;;;-145.06;100.00
59859;BME280;45734;53.648;9.566;2024-01-15T18:28:26;55233.25;;;-145.06;100.00
59859;BME280;45734;53.648;9.566;2024-01-15T18:33:26;55245.41;;;-145.06;100.00
59859;BME280;45734;53.648;9.566;2024-01-15T18:38:26;55221.13;;;-145.06;100.00
59859;BME280;45734;53.648;9.566;2024-01-15T18:43:30;55265.69;;;-145.06;100.00
59859;BME280;45734;53.648;9.566;2024-01-15T18:48:33;55306.19;;;-145.06;100.00
59859;BME280;45734;53.648;9.566;2024-01-15T18:53:33;55314.31;;;-145.06;100.00
59859;BME280;45734;53.648;9.566;2024-01-15T18:58:34;55302.16;;;-145.06;100.00
59859;BME280;45734;53.648;9.566;2024-01-15T19:03:40;55334.56;;;-145.06;100.00
59859;BME280;45734;53.648;9.566;2024-01-15T19:08:41;55314.31;;;-145.06;100.00
59859;BME280;45734;53.648;9.566;2024-01-15T19:13:41;55326.47;;;-145.06;100.00
59859;BME280;45734;53.648;9.566;2024-01-15T19:18:41;55330.50;;;-145.06;100.00
59859;BME280;45734;53.648;9.566;2024-01-15T19:23:42;55322.41;;;-145.06;100.00
59859;BME280;45734;53.648;9.566;2024-01-15T19:28:42;55326.47;;;-145.06;100.00
59859;BME280;45734;53.648;9.566;2024-01-15T19:33:42;55342.66;;;-145.06;100.00
59859;BME280;45734;53.648;9.566;2024-01-15T19:38:42;55334.56;;;-145.06;100.00
59859;BME280;45734;53.648;9.566;2024-01-15T19:43:43;55302.16;;;-145.06;100.00
59859;BME280;45734;53.648;9.566;2024-01-15T19:48:43;55314.31;;;-145.06;100.00
59859;BME280;45734;53.648;9.566;2024-01-15T19:53:43;55312.28;;;-145.06;100.00
59859;BME280;45734;53.648;9.566;2024-01-15T19:58:44;55302.16;;;-145.06;100.00
59859;BME280;45734;53.648;9.566;2024-01-15T20:03:44;55279.84;;;-145.06;100.00
59859;BME280;45734;53.648;9.566;2024-01-15T20:08:44;55257.56;;;-145.06;100.00
59859;BME280;45734;53.648;9.566;2024-01-15T20:13:46;55257.56;;;-145.06;100.00
59859;BME280;45734;53.648;9.566;2024-01-15T20:18:46;55227.19;;;-145.06;100.00
59859;BME280;45734;53.648;9.566;2024-01-15T20:23:47;55217.06;;;-145.06;100.00
59859;BME280;45734;53.648;9.566;2024-01-15T20:28:48;55277.84;;;-145.06;100.00
59859;BME280;45734;53.648;9.566;2024-01-15T20:33:48;55261.63;;;-145.06;100.00
59859;BME280;45734;53.648;9.566;2024-01-15T20:38:49;55269.72;;;-145.06;100.00
59859;BME280;45734;53.648;9.566;2024-01-15T20:43:49;55306.19;;;-145.06;100.00
59859;BME280;45734;53.648;9.566;2024-01-15T20:48:49;55294.03;;;-145.06;100.00
59859;BME280;45734;53.648;9.566;2024-01-15T20:53:50;55265.69;;;-145.06;100.00
59859;BME280;45734;53.648;9.566;2024-01-15T20:58:50;55285.94;;;-145.06;100.00
59859;BME280;45734;53.648;9.566;2024-01-15T21:03:51;55251.50;;;-145.06;100.00
59859;BME280;45734;53.648;9.566;2024-01-15T21:08:51;55217.06;;;-145.06;100.00
59859;BME280;45734;53.648;9.566;2024-01-15T21:13:51;55115.78;;;-145.06;100.00
59859;BME280;45734;53.648;9.566;2024-01-15T21:18:52;55067.16;;;-145.06;100.00
59859;BME280;45734;53.648;9.566;2024-01-15T21:23:52;55081.34;;;-145.06;100.00
59859;BME280;45734;53.648;9.566;2024-01-15T21:28:52;55061.06;;;-145.06;100.00
59859;BME280;45734;53.648;9.566;2024-01-15T21:33:53;55050.94;;;-145.06;100.00
59859;BME280;45734;53.648;9.566;2024-01-15T21:38:53;55042.84;;;-145.06;100.00
59859;BME280;45734;53.648;9.566;2024-01-15T21:43:53;55071.19;;;-145.06;100.00
59859;BME280;45734;53.648;9.566;2024-01-15T21:48:54;55044.88;;;-145.06;100.00
59859;BME280;45734;53.648;9.566;2024-01-15T21:53:54;55081.34;;;-145.06;100.00
59859;BME280;45734;53.648;9.566;2024-01-15T21:58:54;55111.72;;;-145.06;100.00
59859;BME280;45734;53.648;9.566;2024-01-15T22:03:55;55067.16;;;-145.06;100.00
59859;BME280;45734;53.648;9.566;2024-01-15T22:08:55;55079.31;;;-145.06;100.00
59859;BME280;45734;53.648;9.566;2024-01-15T22:13:56;55055.00;;;-145.06;100.00
59859;BME280;45734;53.648;9.566;2024-01-15T22:18:56;55071.19;;;-145.06;100.00
59859;BME280;45734;53.648;9.566;2024-01-15T22:23:56;55063.09;;;-145.06;100.00
59859;BME280;45734;53.648;9.566;2024-01-15T22:28:56;55026.63;;;-145.06;100.00
59859;BME280;45734;53.648;9.566;2024-01-15T22:33:57;55040.81;;;-145.06;100.00
59859;BME280;45734;53.648;9.566;2024-01-15T22:38:58;55050.94;;;-145.06;100.00
59859;BME280;45734;53.648;9.566;2024-01-15T22:43:58;55014.47;;;-145.06;100.00
59859;BME280;45734;53.648;9.566;2024-01-15T22:48:58;55059.03;;;-145.06;100.00
59859;BME280;45734;53.648;9.566;2024-01-15T22:53:58;55042.84;;;-145.06;100.00
59859;BME280;45734;53.648;9.566;2024-01-15T22:58:59;55055.00;;;-145.06;100.00
59859;BME280;45734;53.648;9.566;2024-01-15T23:03:59;55069.19;;;-145.06;100.00
59859;BME280;45734;53.648;9.566;2024-01-15T23:08:59;55034.75;;;-145.06;100.00
59859;BME280;45734;53.648;9.566;2024-01-15T23:14:00;55067.16;;;-145.06;100.00
59859;BME280;45734;53.648;9.566;2024-01-15T23:19:00;55044.88;;;-145.06;100.00
59859;BME280;45734;53.648;9.566;2024-01-15T23:24:00;55044.88;;;-145.06;100.00
59859;BME280;45734;53.648;9.566;2024-01-15T23:29:00;55012.47;;;-145.06;100.00
59859;BME280;45734;53.648;9.566;2024-01-15T23:34:04;55016.50;;;-145.06;100.00
59859;BME280;45734;53.648;9.566;2024-01-15T23:39:05;55016.50;;;-145.06;100.00
59859;BME280;45734;53.648;9.566;2024-01-15T23:44:07;55016.50;;;-145.06;100.00
59859;BME280;45734;53.648;9.566;2024-01-15T23:49:08;55020.56;;;-145.06;100.00
59859;BME280;45734;53.648;9.566;2024-01-15T23:54:08;55004.34;;;-145.06;100.00
59859;BME280;45734;53.648;9.566;2024-01-15T23:59:08;55002.31;;;-145.06;100.00
